Time;durP1;ratioP1;P1;durP2;ratioP2;P2;SDS_P1;SDS_P2;PMS_P1;PMS_P2;Temp;Humidity;BMP_temperature;BMP_pressure;BME280_temperature;BME280_humidity;BME280_pressure;Samples;Min_cycle;Max_cycle;Signal;HPM_P1;HPM_P2
2022/07/31 00:02:01;;;;;;;14.37;12.10;;;21.70;99.90;;;22.19;74.10;94791.03;5045226;28;20570;-67
2022/07/31 00:04:30;;;;;;;16.13;12.40;;;21.70;99.90;;;22.18;73.82;94794.75;5049098;28;20456;-67
2022/07/31 00:06:58;;;;;;;15.13;13.43;;;21.70;99.90;;;22.17;74.21;94795.78;5046207;28;20562;-67
2022/07/31 00:09:25;;;;;;;17.93;13.40;;;21.60;99.90;;;22.15;74.39;94795.19;5045697;28;20534;-64
2022/07/31 00:11:52;;;;;;;14.70;12.33;;;21.60;99.90;;;22.15;73.74;94794.34;5043257;28;20584;-66
2022/07/31 00:14:19;;;;;;;13.90;12.60;;;21.60;99.90;;;22.14;75.00;94790.84;5045131;28;20460;-56
2022/07/31 00:16:46;;;;;;;16.50;13.27;;;21.70;99.90;;;22.15;74.63;94803.22;5044666;28;20491;-55
2022/07/31 00:19:14;;;;;;;14.67;13.27;;;21.60;99.90;;;22.13;75.14;94802.59;5045311;28;20463;-66
2022/07/31 00:21:42;;;;;;;18.70;11.93;;;21.60;99.90;;;22.13;74.49;94807.94;5045454;28;20464;-57
2022/07/31 00:24:10;;;;;;;15.60;12.77;;;21.60;99.90;;;22.11;74.28;94810.03;5045700;28;20467;-68
2022/07/31 00:26:37;;;;;;;16.70;13.13;;;21.60;99.90;;;22.10;74.55;94808.38;5047370;28;20471;-56
2022/07/31 00:29:04;;;;;;;15.00;13.50;;;21.60;99.90;;;22.10;73.71;94807.56;5048470;28;20960;-56
2022/07/31 00:31:32;;;;;;;17.57;13.67;;;21.60;99.90;;;22.07;73.81;94816.03;5051374;28;20507;-66
2022/07/31 00:33:59;;;;;;;14.23;12.90;;;21.50;99.90;;;22.05;74.22;94820.78;5050037;28;20468;-57
2022/07/31 00:36:26;;;;;;;12.73;11.43;;;21.50;99.90;;;22.03;74.42;94812.97;5049403;28;20487;-67
2022/07/31 00:38:55;;;;;;;21.83;14.30;;;21.50;99.90;;;22.02;74.00;94812.13;5049263;28;20455;-65
2022/07/31 00:41:22;;;;;;;14.43;12.93;;;21.50;99.90;;;22.02;74.35;94817.47;5052141;28;20471;-67
2022/07/31 00:43:49;;;;;;;18.93;13.53;;;21.50;99.90;;;22.02;74.71;94817.47;5045739;28;20448;-66
2022/07/31 00:46:16;;;;;;;14.90;13.33;;;21.50;99.90;;;22.01;74.84;94820.38;5049921;28;20484;-67
2022/07/31 00:48:44;;;;;;;14.63;13.13;;;21.50;99.90;;;22.01;74.99;94815.00;5050236;28;20459;-57
2022/07/31 00:51:11;;;;;;;16.87;12.43;;;21.50;99.90;;;21.98;75.05;94810.91;5051577;28;20517;-67
2022/07/31 00:53:38;;;;;;;13.93;12.70;;;21.50;99.90;;;21.96;74.56;94815.66;5051770;28;20481;-65
2022/07/31 00:56:07;;;;;;;20.10;14.40;;;21.40;99.90;;;21.94;75.11;94809.69;5049360;28;21020;-68
2022/07/31 00:58:34;;;;;;;14.80;13.30;;;21.40;99.90;;;21.93;74.86;94815.25;5046992;28;21023;-56
2022/07/31 01:01:01;;;;;;;16.00;13.97;;;21.40;99.90;;;21.92;75.17;94816.28;5050315;28;20501;-57
2022/07/31 01:03:28;;;;;;;16.80;14.77;;;21.40;99.90;;;21.90;75.17;94816.50;5049576;28;21028;-56
2022/07/31 01:05:56;;;;;;;15.03;13.47;;;21.40;99.90;;;21.89;75.02;94827.41;5048603;28;20483;-67
2022/07/31 01:08:23;;;;;;;14.47;12.97;;;21.40;99.90;;;21.86;74.88;94831.34;5052077;28;20467;-68
2022/07/31 01:10:55;;;;;;;16.33;13.43;;;21.30;99.90;;;21.85;74.65;94833.19;5049524;28;20483;-67
2022/07/31 01:13:33;;;;;;;15.27;13.77;;;21.40;99.90;;;21.79;75.12;94820.66;5048512;28;20454;-56
2022/07/31 01:16:00;;;;;;;13.33;11.90;;;21.30;99.90;;;21.81;74.75;94820.44;5050067;28;20536;-57
2022/07/31 01:18:29;;;;;;;14.10;12.60;;;21.30;99.90;;;21.80;75.22;94814.28;5050608;28;20487;-65
2022/07/31 01:20:57;;;;;;;14.70;11.97;;;21.30;99.90;;;21.79;74.96;94812.63;5052923;28;20474;-65
2022/07/31 01:23:50;;;;;;;16.53;13.97;;;21.30;99.90;;;21.78;75.00;94819.03;5049820;28;21212;-68
2022/07/31 01:26:30;;;;;;;14.23;12.67;;;21.30;99.90;;;21.77;74.96;94814.69;5048551;28;20480;-66
2022/07/31 01:29:08;;;;;;;13.83;12.00;;;21.30;99.90;;;21.74;74.72;94815.13;5053477;28;20474;-56
2022/07/31 01:31:38;;;;;;;15.17;12.47;;;21.30;99.90;;;21.73;74.95;94829.53;5046564;28;20517;-56
2022/07/31 01:34:09;;;;;;;13.73;12.30;;;21.20;99.90;;;21.72;74.58;94830.56;5050809;28;20463;-56
2022/07/31 01:36:39;;;;;;;13.90;12.47;;;21.20;99.90;;;21.71;74.45;94826.25;5046921;28;20561;-56
2022/07/31 01:39:06;;;;;;;12.80;11.47;;;21.20;99.90;;;21.69;74.42;94830.16;5046270;28;20609;-68
2022/07/31 01:41:42;;;;;;;14.27;12.87;;;21.20;99.90;;;21.67;74.30;94820.50;5048189;28;20483;-67
2022/07/31 01:44:11;;;;;;;12.63;11.40;;;21.20;99.90;;;21.66;74.04;94821.53;5049057;28;21193;-68
2022/07/31 01:46:38;;;;;;;14.10;11.40;;;21.10;99.90;;;21.65;74.11;94829.75;5052306;28;20483;-67
2022/07/31 01:49:06;;;;;;;12.63;11.33;;;21.10;99.90;;;21.63;73.97;94821.94;5051289;28;20454;-55
2022/07/31 01:51:33;;;;;;;11.87;10.53;;;21.10;99.90;;;21.62;74.12;94816.78;5049125;28;20918;-57
2022/07/31 01:54:00;;;;;;;13.13;11.83;;;21.10;99.90;;;21.61;73.71;94818.66;5048518;28;20472;-67
2022/07/31 01:56:27;;;;;;;12.90;11.00;;;21.10;99.90;;;21.59;73.44;94826.06;5049212;28;20510;-66
2022/07/31 01:58:54;;;;;;;12.30;11.10;;;21.10;99.90;;;21.60;73.50;94825.03;5050674;28;20499;-68
2022/07/31 02:01:23;;;;;;;11.80;10.00;;;21.10;99.90;;;21.58;73.50;94828.94;5047680;28;20897;-57
2022/07/31 02:03:51;;;;;;;11.73;9.73;;;21.10;99.90;;;21.54;73.39;94831.22;5049203;28;20459;-56
2022/07/31 02:06:19;;;;;;;9.87;8.90;;;21.00;99.90;;;21.52;73.46;94832.44;5047673;28;20658;-68
2022/07/31 02:08:49;;;;;;;11.63;10.13;;;21.00;99.90;;;21.45;73.49;94822.56;5049089;28;20517;-67
2022/07/31 02:11:16;;;;;;;11.90;10.47;;;21.00;99.90;;;21.45;73.57;94822.56;5054020;28;20484;-67
2022/07/31 02:13:43;;;;;;;11.53;10.27;;;21.00;99.90;;;21.43;73.43;94829.16;5050564;28;20968;-66
2022/07/31 02:16:11;;;;;;;15.70;11.70;;;20.90;99.90;;;21.40;73.40;94826.91;5050235;28;20476;-65
2022/07/31 02:18:39;;;;;;;12.17;10.93;;;20.90;99.90;;;21.37;73.50;94825.47;5048977;28;20521;-56
2022/07/31 02:21:07;;;;;;;13.63;11.80;;;20.90;99.90;;;21.35;73.52;94829.34;5048359;28;20494;-57
2022/07/31 02:23:34;;;;;;;15.20;11.77;;;20.90;99.90;;;21.33;73.31;94832.25;5049973;28;20530;-56
2022/07/31 02:26:02;;;;;;;14.10;12.47;;;20.80;99.90;;;21.31;73.62;94834.31;5049356;28;20464;-56
2022/07/31 02:28:29;;;;;;;15.07;13.57;;;20.80;99.90;;;21.31;73.49;94834.31;5048127;28;20448;-57
2022/07/31 02:30:56;;;;;;;15.83;13.27;;;20.80;99.90;;;21.28;73.46;94835.53;5046345;28;20568;-68
2022/07/31 02:33:27;;;;;;;15.87;14.13;;;20.80;99.90;;;21.26;73.78;94837.59;5047672;28;20886;-69
2022/07/31 02:35:56;;;;;;;21.87;13.90;;;20.80;99.90;;;21.25;73.56;94832.47;5049344;28;20565;-68
2022/07/31 02:38:25;;;;;;;16.77;13.97;;;20.80;99.90;;;21.23;73.62;94843.38;5048264;28;20576;-56
2022/07/31 02:40:57;;;;;;;14.97;12.40;;;20.70;99.90;;;21.23;73.61;94834.53;5051960;28;20533;-67
2022/07/31 02:43:25;;;;;;;17.47;14.00;;;20.70;99.90;;;21.22;73.57;94840.91;5050134;28;20538;-67
2022/07/31 02:45:52;;;;;;;14.50;13.07;;;20.70;99.90;;;21.22;73.64;94840.91;5044837;28;20574;-68
2022/07/31 02:48:20;;;;;;;15.70;12.10;;;20.70;99.90;;;21.22;73.25;94832.88;5047515;28;20545;-57
2022/07/31 02:50:47;;;;;;;14.20;12.30;;;20.70;99.90;;;21.22;73.18;94843.56;5050276;28;20471;-56
2022/07/31 02:53:15;;;;;;;13.20;11.33;;;20.70;99.90;;;21.20;72.81;94848.31;5047601;28;20551;-57
2022/07/31 02:55:43;;;;;;;17.23;12.83;;;20.70;99.90;;;21.17;73.23;94846.88;5047514;28;20468;-68
2022/07/31 02:58:10;;;;;;;14.03;12.03;;;20.70;99.90;;;21.17;72.79;94840.72;5045076;28;20611;-57
2022/07/31 03:00:38;;;;;;;14.07;12.40;;;20.70;99.90;;;21.14;72.67;94842.75;5046506;28;20526;-56
2022/07/31 03:03:05;;;;;;;17.53;11.70;;;20.70;99.90;;;21.15;72.83;94840.91;5047935;28;20463;-55
2022/07/31 03:05:32;;;;;;;11.93;10.83;;;20.70;99.90;;;21.13;72.62;94843.78;5047133;28;20458;-56
2022/07/31 03:07:59;;;;;;;21.43;11.53;;;20.70;99.90;;;21.14;72.65;94845.41;5051708;28;20509;-56
2022/07/31 03:10:28;;;;;;;10.03;9.20;;;20.70;99.90;;;21.12;72.38;94839.47;5049605;28;20459;-66
2022/07/31 03:12:55;;;;;;;11.13;10.03;;;20.70;99.90;;;21.11;72.41;94848.50;5044515;28;20541;-67
2022/07/31 03:15:26;;;;;;;11.40;10.50;;;20.60;99.90;;;21.10;72.16;94852.22;5048823;28;20527;-57
2022/07/31 03:17:53;;;;;;;14.17;10.37;;;20.60;99.90;;;21.08;72.08;94850.78;5045621;28;20491;-68
2022/07/31 03:20:20;;;;;;;11.43;10.20;;;20.60;99.90;;;21.06;72.24;94856.34;5057476;28;20459;-68
2022/07/31 03:22:47;;;;;;;11.20;9.70;;;20.60;99.90;;;21.05;72.27;94849.38;5046423;28;20487;-56
2022/07/31 03:25:15;;;;;;;10.73;9.30;;;20.60;99.90;;;21.04;72.16;94852.25;5046076;28;20460;-57
2022/07/31 03:27:43;;;;;;;9.53;8.73;;;20.50;99.90;;;21.02;72.16;94855.13;5045633;28;20491;-56
2022/07/31 03:30:17;;;;;;;14.63;9.63;;;20.50;99.90;;;21.01;72.03;94856.13;5043375;28;20967;-55
2022/07/31 03:32:44;;;;;;;11.33;10.13;;;20.50;99.90;;;21.01;72.18;94860.66;5049363;28;20479;-67
2022/07/31 03:35:11;;;;;;;11.73;10.60;;;20.50;99.90;;;21.01;72.10;94866.84;5047562;28;20460;-56
2022/07/31 03:37:39;;;;;;;12.67;11.37;;;20.50;99.90;;;21.00;72.07;94865.19;5045681;28;20940;-68
2022/07/31 03:40:07;;;;;;;15.50;12.40;;;20.50;99.90;;;21.01;72.37;94864.16;5050377;28;20455;-68
2022/07/31 03:42:35;;;;;;;16.70;11.47;;;20.50;99.90;;;21.01;72.30;94858.00;5045807;28;20480;-56
2022/07/31 03:45:04;;;;;;;11.83;10.63;;;20.50;99.90;;;21.03;72.30;94867.44;5046238;28;20459;-66
2022/07/31 03:47:31;;;;;;;10.60;9.50;;;20.50;99.90;;;21.05;72.29;94870.75;5044921;28;21006;-67
2022/07/31 03:49:59;;;;;;;10.13;9.13;;;20.60;99.90;;;21.10;72.12;94875.47;5048743;28;20971;-67
2022/07/31 03:52:26;;;;;;;15.63;8.83;;;20.60;99.90;;;21.12;71.88;94866.22;5049499;28;20516;-58
2022/07/31 03:54:53;;;;;;;9.97;8.97;;;20.60;99.90;;;21.17;72.06;94876.28;5047772;28;20466;-57
2022/07/31 03:57:20;;;;;;;13.00;10.33;;;20.70;99.90;;;21.21;72.14;94874.03;5049288;28;20936;-66
2022/07/31 03:59:48;;;;;;;12.73;9.77;;;20.70;99.90;;;21.24;71.78;94868.25;5048733;28;20463;-66
2022/07/31 04:02:17;;;;;;;18.60;10.13;;;20.70;99.90;;;21.25;71.79;94875.25;5045118;28;20472;-67
2022/07/31 04:04:44;;;;;;;11.97;10.77;;;20.80;99.90;;;21.28;71.73;94872.19;5048357;28;20876;-56
2022/07/31 04:07:11;;;;;;;15.17;11.97;;;20.80;99.90;;;21.29;71.79;94876.50;5046073;28;20927;-67
2022/07/31 04:09:38;;;;;;;12.93;11.57;;;20.80;99.90;;;21.28;72.05;94875.66;5048827;28;20456;-57
2022/07/31 04:12:06;;;;;;;14.90;11.63;;;20.80;99.90;;;21.34;72.04;94876.72;5052922;28;20557;-65
2022/07/31 04:14:33;;;;;;;13.10;11.80;;;20.90;99.90;;;21.38;71.84;94869.06;5045721;28;20448;-56
2022/07/31 04:17:00;;;;;;;12.73;10.43;;;20.90;99.90;;;21.39;71.79;94866.19;5045476;28;20475;-67
2022/07/31 04:19:30;;;;;;;13.20;11.90;;;20.90;99.90;;;21.42;71.96;94873.81;5047284;28;20541;-57
2022/07/31 04:21:57;;;;;;;15.80;11.40;;;20.90;99.90;;;21.46;71.97;94864.34;5045190;28;20848;-56
2022/07/31 04:24:25;;;;;;;13.50;12.10;;;20.90;99.90;;;21.51;71.98;94863.75;5045721;28;20962;-56
2022/07/31 04:26:54;;;;;;;14.77;11.90;;;21.00;99.90;;;21.58;71.91;94861.06;5045893;28;20566;-68
2022/07/31 04:29:22;;;;;;;15.13;13.53;;;21.10;99.90;;;21.63;71.84;94861.28;5045687;28;20444;-66
2022/07/31 04:31:49;;;;;;;13.53;11.90;;;21.10;99.90;;;21.71;72.01;94868.25;5044809;28;20554;-68
2022/07/31 04:34:16;;;;;;;12.90;11.60;;;21.20;99.90;;;21.78;71.74;94863.69;5044561;28;20502;-56
2022/07/31 04:36:45;;;;;;;13.20;11.40;;;21.30;99.90;;;21.88;71.43;94864.09;5045645;28;20475;-69
2022/07/31 04:39:12;;;;;;;11.10;10.00;;;21.30;99.90;;;21.97;71.10;94857.47;5047260;28;20558;-67
2022/07/31 04:41:39;;;;;;;18.77;11.83;;;21.40;99.90;;;22.08;71.21;94857.88;5042365;28;20484;-56
2022/07/31 04:44:07;;;;;;;17.33;10.87;;;21.60;99.90;;;22.17;71.09;94860.09;5045925;28;20517;-57
2022/07/31 04:46:34;;;;;;;11.87;10.33;;;21.60;99.90;;;22.26;70.74;94859.84;5045726;28;20892;-55
2022/07/31 04:49:01;;;;;;;16.07;10.73;;;21.70;99.90;;;22.35;70.80;94870.16;5045390;28;20451;-56
2022/07/31 04:51:28;;;;;;;12.67;9.87;;;21.80;99.90;;;22.43;70.24;94874.41;5045219;28;20487;-67
2022/07/31 04:53:57;;;;;;;11.53;10.43;;;21.90;99.90;;;22.49;70.61;94862.84;5041188;28;20447;-67
2022/07/31 04:56:34;;;;;;;12.17;10.97;;;21.90;99.90;;;22.55;69.93;94866.53;5048329;28;20549;-67
2022/07/31 04:59:03;;;;;;;14.20;10.63;;;22.00;99.90;;;22.59;69.87;94875.78;5044593;28;20484;-67
2022/07/31 05:01:31;;;;;;;11.83;10.60;;;22.00;99.90;;;22.65;69.66;94869.56;5042824;28;20479;-56
2022/07/31 05:03:59;;;;;;;11.67;10.13;;;22.10;99.90;;;22.72;69.57;94870.34;5043199;28;20976;-69
2022/07/31 05:06:34;;;;;;;15.40;11.53;;;22.20;99.90;;;22.81;69.06;94878.16;5046861;28;20468;-66
2022/07/31 05:09:04;;;;;;;13.30;10.20;;;22.30;99.90;;;22.87;69.04;94878.09;5049111;28;20570;-66
2022/07/31 05:11:31;;;;;;;10.27;9.37;;;22.30;99.90;;;22.90;68.60;94874.97;5045228;28;20480;-57
2022/07/31 05:13:59;;;;;;;10.40;9.40;;;22.40;99.90;;;22.94;68.37;94871.88;5045670;28;20545;-67
2022/07/31 05:16:27;;;;;;;13.03;9.20;;;22.40;99.90;;;22.98;68.87;94875.78;5051950;28;20468;-55
2022/07/31 05:18:55;;;;;;;11.23;9.70;;;22.50;99.90;;;23.03;68.42;94875.94;5047612;28;20483;-68
2022/07/31 05:21:23;;;;;;;18.17;10.53;;;22.50;99.90;;;23.07;68.21;94872.59;5048594;28;20472;-68
2022/07/31 05:23:50;;;;;;;14.97;10.37;;;22.50;99.90;;;23.11;68.45;94862.28;5048122;28;20482;-70
2022/07/31 05:26:19;;;;;;;10.63;9.53;;;22.60;99.90;;;23.14;68.08;94869.88;5052993;28;20479;-55
2022/07/31 05:28:48;;;;;;;14.00;9.20;;;22.60;99.90;;;23.18;68.25;94870.28;5052850;28;20459;-56
2022/07/31 05:31:15;;;;;;;9.73;8.83;;;22.60;99.90;;;23.18;67.99;94868.41;5047130;28;20881;-67
2022/07/31 05:33:43;;;;;;;10.97;9.60;;;22.60;99.90;;;23.17;67.69;94874.81;5047143;28;20456;-66
2022/07/31 05:36:10;;;;;;;9.13;8.20;;;22.60;99.90;;;23.20;67.63;94873.56;5050851;28;20628;-56
2022/07/31 05:38:37;;;;;;;9.30;8.50;;;22.70;99.90;;;23.25;68.03;94879.94;5048138;28;20896;-56
2022/07/31 05:41:05;;;;;;;15.10;9.10;;;22.70;99.90;;;23.33;67.53;94880.69;5048138;28;20529;-67
2022/07/31 05:43:33;;;;;;;8.20;7.53;;;22.80;99.90;;;23.40;67.45;94882.28;5048643;28;20505;-57
2022/07/31 05:46:00;;;;;;;7.97;7.00;;;22.80;99.90;;;23.45;66.93;94879.78;5047865;28;20479;-64
2022/07/31 05:48:28;;;;;;;8.00;7.20;;;22.90;99.90;;;23.55;67.31;94884.63;5046700;28;20455;-57
2022/07/31 05:50:55;;;;;;;8.13;6.93;;;23.00;99.90;;;23.67;66.67;94882.06;5054478;28;20490;-70
2022/07/31 05:53:22;;;;;;;12.43;6.90;;;23.10;99.90;;;23.80;66.36;94878.41;5047454;28;20547;-57
2022/07/31 05:55:50;;;;;;;8.70;7.83;;;23.20;99.90;;;23.96;66.18;94868.97;5047107;28;21045;-58
2022/07/31 05:58:18;;;;;;;10.67;7.47;;;23.30;99.90;;;24.19;65.73;94873.66;5046667;28;20494;-70
2022/07/31 06:00:48;;;;;;;8.30;7.60;;;23.50;99.90;;;24.44;65.82;94875.44;5048502;28;20509;-69
2022/07/31 06:03:15;;;;;;;11.63;8.20;;;23.80;99.90;;;24.68;65.07;94882.59;5044776;28;20458;-65
2022/07/31 06:05:42;;;;;;;8.63;7.77;;;24.00;99.90;;;24.85;64.53;94887.34;5045688;28;20555;-64
2022/07/31 06:08:09;;;;;;;9.00;8.20;;;24.10;99.90;;;24.98;64.03;94887.13;5045756;28;20452;-66
2022/07/31 06:10:37;;;;;;;11.30;8.37;;;24.30;99.90;;;25.08;62.96;94888.44;5042292;28;20451;-57
2022/07/31 06:13:04;;;;;;;13.33;8.23;;;24.40;99.90;;;25.26;63.05;94876.81;5045645;28;20894;-65
2022/07/31 06:15:31;;;;;;;10.73;9.13;;;24.60;99.90;;;25.46;62.53;94879.19;5046536;28;20447;-57
2022/07/31 06:18:00;;;;;;;11.23;9.07;;;24.80;99.90;;;25.67;61.84;94877.78;5047759;28;20500;-64
2022/07/31 06:20:28;;;;;;;12.37;10.30;;;24.90;99.70;;;25.93;60.87;94868.41;5044084;28;20447;-65
2022/07/31 06:22:55;;;;;;;10.07;9.10;;;25.20;99.10;;;26.18;60.66;94873.56;5049541;28;20486;-58
2022/07/31 06:25:22;;;;;;;10.50;9.57;;;25.50;98.80;;;26.36;59.56;94875.28;5046600;28;20523;-64
2022/07/31 06:27:49;;;;;;;12.80;9.93;;;25.70;97.90;;;26.42;59.13;94874.31;5047295;28;20475;-57
2022/07/31 06:30:17;;;;;;;12.40;9.70;;;25.80;97.50;;;26.43;59.00;94873.28;5043268;28;20550;-63
2022/07/31 06:32:44;;;;;;;11.50;9.37;;;25.80;97.60;;;26.41;58.80;94878.06;5043456;28;21064;-56
2022/07/31 06:35:13;;;;;;;10.70;9.70;;;25.80;96.90;;;26.39;58.57;94874.00;5047039;28;21489;-56
2022/07/31 06:37:40;;;;;;;11.10;10.10;;;25.80;96.60;;;26.39;58.58;94869.41;5043968;28;20540;-57
2022/07/31 06:40:09;;;;;;;14.80;12.10;;;25.80;96.50;;;26.47;58.38;94874.41;5046561;28;21007;-63
2022/07/31 06:42:36;;;;;;;11.40;10.00;;;25.80;96.50;;;26.47;57.87;94866.31;5047074;28;20481;-56
2022/07/31 06:45:04;;;;;;;13.00;11.63;;;25.80;96.10;;;26.52;57.74;94872.88;5046815;28;20451;-57
2022/07/31 06:47:31;;;;;;;12.93;11.63;;;25.90;96.00;;;26.60;57.85;94877.91;5045116;28;20471;-57
2022/07/31 06:49:59;;;;;;;12.73;10.93;;;25.90;96.00;;;26.70;57.45;94870.03;5047001;28;20533;-56
2022/07/31 06:52:27;;;;;;;13.13;11.27;;;26.00;95.90;;;26.80;57.50;94874.78;5046767;28;20471;-65
2022/07/31 06:54:54;;;;;;;11.30;10.13;;;26.10;95.70;;;26.89;57.10;94881.44;5046665;28;20565;-57
2022/07/31 06:57:22;;;;;;;13.00;11.83;;;26.20;95.30;;;27.01;56.42;94876.00;5043510;28;20565;-65
2022/07/31 06:59:49;;;;;;;11.33;10.27;;;26.30;94.90;;;27.17;56.36;94880.63;5047150;28;20540;-64
2022/07/31 07:02:16;;;;;;;13.77;10.67;;;26.50;94.80;;;27.39;56.33;94873.69;5045502;28;20533;-56
2022/07/31 07:04:43;;;;;;;13.17;11.63;;;26.70;94.90;;;27.62;55.85;94875.41;5047169;28;21484;-57
2022/07/31 07:07:11;;;;;;;14.87;12.17;;;26.90;94.10;;;27.81;55.53;94884.06;5050730;28;20471;-57
2022/07/31 07:09:39;;;;;;;15.10;13.50;;;27.00;94.00;;;27.95;55.13;94884.53;5046125;28;20884;-58
2022/07/31 07:12:08;;;;;;;15.50;13.50;;;27.20;93.70;;;28.12;54.35;94882.66;5043125;28;20895;-57
2022/07/31 07:14:35;;;;;;;17.07;14.27;;;27.40;93.30;;;28.29;54.18;94881.78;5046496;28;20451;-65
2022/07/31 07:17:04;;;;;;;13.87;12.47;;;27.60;93.10;;;28.36;53.90;94887.84;5046825;28;20859;-65
2022/07/31 07:19:32;;;;;;;16.83;13.93;;;27.60;92.40;;;28.44;53.31;94892.78;5045716;28;20494;-59
2022/07/31 07:21:59;;;;;;;17.37;12.40;;;27.70;92.00;;;28.42;53.80;94890.34;5045319;28;21026;-57
2022/07/31 07:24:27;;;;;;;15.73;14.00;;;27.80;91.70;;;28.38;53.68;94893.78;5046698;28;20505;-64
2022/07/31 07:26:55;;;;;;;17.13;14.30;;;27.80;91.60;;;28.30;53.69;94892.34;5046707;28;20486;-64
2022/07/31 07:29:23;;;;;;;14.90;13.40;;;27.70;91.60;;;28.16;53.93;94891.09;5046489;28;20455;-57
2022/07/31 07:31:50;;;;;;;17.33;14.07;;;27.60;91.60;;;28.06;53.64;94899.88;5045082;28;20921;-57
2022/07/31 07:34:17;;;;;;;18.03;14.47;;;27.40;91.50;;;27.98;54.09;94900.28;5045705;28;20451;-64
2022/07/31 07:36:45;;;;;;;16.27;14.57;;;27.40;91.80;;;27.89;54.38;94891.78;5046450;28;20583;-65
2022/07/31 07:39:12;;;;;;;21.47;14.70;;;27.30;92.10;;;27.88;54.76;94890.13;5044441;28;20495;-64
2022/07/31 07:41:40;;;;;;;20.00;13.37;;;27.30;92.20;;;27.93;54.44;94889.38;5046034;28;20479;-64
2022/07/31 07:44:08;;;;;;;13.30;11.20;;;27.30;92.40;;;28.03;54.94;94884.16;5046374;28;20462;-57
2022/07/31 07:46:35;;;;;;;11.27;10.00;;;27.40;92.40;;;28.20;54.67;94881.41;5045786;28;20478;-57
2022/07/31 07:49:03;;;;;;;12.97;9.90;;;27.50;92.30;;;28.35;54.29;94889.72;5046436;28;20447;-57
2022/07/31 07:51:30;;;;;;;10.23;8.83;;;27.60;92.10;;;28.38;53.61;94894.63;5045424;28;20475;-65
2022/07/31 07:53:58;;;;;;;16.70;10.23;;;27.70;91.60;;;28.33;54.17;94880.22;5045797;28;20986;-63
2022/07/31 07:56:25;;;;;;;13.50;10.87;;;27.70;91.50;;;28.30;53.75;94880.72;5045791;28;20553;-56
2022/07/31 07:58:52;;;;;;;10.67;9.57;;;27.60;91.60;;;28.22;53.45;94885.47;5045510;28;20548;-56
2022/07/31 08:01:21;;;;;;;11.63;9.07;;;27.60;91.30;;;28.17;53.46;94882.72;5044943;28;20920;-65
2022/07/31 08:03:48;;;;;;;10.57;9.37;;;27.60;91.20;;;28.12;53.32;94882.66;5045326;28;20451;-58
2022/07/31 08:06:15;;;;;;;12.50;9.80;;;27.50;91.00;;;28.06;53.58;94886.38;5045389;28;20524;-58
2022/07/31 08:08:42;;;;;;;11.17;9.23;;;27.50;91.00;;;28.01;54.16;94894.38;5045383;28;20451;-64
2022/07/31 08:11:10;;;;;;;10.73;9.73;;;27.50;91.10;;;27.96;53.61;94899.72;5045175;28;20479;-57
2022/07/31 08:13:37;;;;;;;11.33;9.60;;;27.40;91.00;;;27.92;53.81;94885.88;5045802;28;20451;-58
2022/07/31 08:16:05;;;;;;;8.60;7.80;;;27.30;90.90;;;27.87;53.90;94896.59;5045297;28;20480;-57
2022/07/31 08:18:33;;;;;;;10.13;9.13;;;27.30;90.90;;;27.83;54.19;94901.69;5045192;28;20451;-65
2022/07/31 08:21:00;;;;;;;11.80;8.30;;;27.20;91.00;;;27.87;54.16;94902.00;5046710;28;20467;-57
2022/07/31 08:23:28;;;;;;;8.90;8.10;;;27.30;91.10;;;28.02;54.27;94901.44;5045824;28;20448;-57
2022/07/31 08:25:55;;;;;;;9.33;8.33;;;27.40;91.20;;;28.13;53.90;94903.22;5041296;28;20471;-58
2022/07/31 08:28:24;;;;;;;8.83;8.03;;;27.50;91.00;;;28.20;53.63;94898.44;5045932;28;20469;-67
2022/07/31 08:30:51;;;;;;;9.70;8.70;;;27.60;90.80;;;28.23;53.42;94906.06;5044336;28;20546;-65
2022/07/31 08:33:18;;;;;;;10.40;9.17;;;27.60;90.60;;;28.24;53.54;94910.41;5044959;28;20448;-56
2022/07/31 08:35:48;;;;;;;9.40;8.60;;;27.60;90.50;;;28.25;53.44;94905.81;5045419;28;21128;-64
2022/07/31 08:38:17;;;;;;;8.90;8.20;;;27.60;90.40;;;28.32;52.83;94905.63;5036335;28;20546;-64
2022/07/31 08:40:44;;;;;;;8.97;8.17;;;27.70;90.30;;;28.43;52.67;94896.59;5037899;28;20497;-64
2022/07/31 08:43:12;;;;;;;11.00;9.53;;;27.80;90.30;;;28.50;52.09;94893.69;5035310;28;20455;-57
2022/07/31 08:45:40;;;;;;;10.17;9.20;;;27.90;90.00;;;28.57;52.78;94895.13;5033006;28;20459;-63
2022/07/31 08:48:07;;;;;;;10.83;9.83;;;27.90;89.60;;;28.73;52.06;94895.34;5038531;28;20451;-58
2022/07/31 08:50:35;;;;;;;10.20;9.20;;;28.10;89.70;;;29.00;51.89;94905.38;5036403;28;20549;-66
2022/07/31 08:53:03;;;;;;;8.83;8.07;;;28.30;89.50;;;29.24;51.67;94898.59;5044478;28;20891;-57
2022/07/31 08:55:31;;;;;;;10.00;9.00;;;28.50;88.60;;;29.37;50.79;94904.69;5033234;28;20447;-66
2022/07/31 08:57:58;;;;;;;10.43;9.37;;;28.70;87.40;;;29.41;50.59;94905.81;5036926;28;20446;-59
2022/07/31 09:00:27;;;;;;;13.33;11.30;;;28.80;86.40;;;29.41;50.71;94903.09;5035869;28;20225;-57
2022/07/31 09:02:54;;;;;;;12.37;11.17;;;28.80;85.90;;;29.39;50.63;94908.78;5037840;28;20511;-58
2022/07/31 09:05:23;;;;;;;12.53;10.83;;;28.80;84.70;;;29.38;50.08;94898.19;5042818;28;20952;-63
2022/07/31 09:07:51;;;;;;;13.77;12.37;;;28.80;84.70;;;29.35;50.25;94901.41;5045235;28;20560;-63
2022/07/31 09:10:25;;;;;;;16.63;13.47;;;28.80;84.50;;;29.33;50.14;94904.38;5042965;28;20589;-63
2022/07/31 09:12:52;;;;;;;13.30;11.90;;;28.70;84.30;;;29.29;50.36;94906.75;5044737;28;20506;-64
2022/07/31 09:15:24;;;;;;;12.63;11.33;;;28.70;84.10;;;29.26;50.63;94904.56;5046329;28;20704;-58
2022/07/31 09:17:51;;;;;;;15.40;13.80;;;28.70;83.70;;;29.26;50.67;94904.56;5043013;28;20494;-58
2022/07/31 09:20:20;;;;;;;16.53;14.60;;;28.70;84.00;;;29.30;49.71;94904.91;5044028;28;20483;-63
2022/07/31 09:22:48;;;;;;;15.83;14.20;;;28.70;82.90;;;29.30;49.56;94913.84;5046348;28;20249;-58
2022/07/31 09:25:17;;;;;;;15.90;14.30;;;28.70;82.50;;;29.28;49.61;94916.00;5047004;28;20197;-58
2022/07/31 09:27:47;;;;;;;16.67;14.70;;;28.60;82.00;;;29.24;49.41;94908.63;5047437;28;20217;-61
2022/07/31 09:30:14;;;;;;;16.63;14.30;;;28.60;81.50;;;29.23;49.89;94899.66;5042888;28;20199;-63
2022/07/31 09:32:44;;;;;;;17.83;15.93;;;28.60;81.10;;;29.36;48.72;94903.03;5045032;28;20566;-56
2022/07/31 09:35:13;;;;;;;17.83;15.97;;;28.70;80.60;;;29.56;48.47;94891.53;5046585;28;20185;-58
2022/07/31 09:37:41;;;;;;;20.10;14.50;;;28.90;79.70;;;29.76;48.72;94888.19;5044699;28;20377;-61
2022/07/31 09:40:09;;;;;;;16.57;14.87;;;29.00;78.50;;;29.89;47.58;94889.69;5047358;28;20228;-60
2022/07/31 09:42:38;;;;;;;21.33;17.77;;;29.10;77.00;;;29.97;47.33;94886.47;5044753;28;20220;-57
2022/07/31 09:45:20;;;;;;;19.83;16.93;;;29.30;76.80;;;29.98;46.65;94878.06;5044787;28;20332;-61
2022/07/31 09:47:47;;;;;;;18.70;14.63;;;29.30;75.40;;;30.04;47.28;94882.44;5046209;28;20286;-60
2022/07/31 09:50:14;;;;;;;17.23;15.43;;;29.40;75.50;;;30.10;47.43;94875.16;5044482;28;20630;-61
2022/07/31 09:52:42;;;;;;;22.43;17.13;;;29.40;75.10;;;30.12;46.40;94886.56;5044892;28;20282;-59
2022/07/31 09:55:11;;;;;;;16.93;14.83;;;29.50;74.20;;;30.26;46.93;94876.06;5046276;28;20204;-59
2022/07/31 09:57:40;;;;;;;19.70;15.33;;;29.60;74.20;;;30.36;45.92;94877.97;5045691;28;20290;-62
2022/07/31 10:00:10;;;;;;;18.90;15.80;;;29.70;73.40;;;30.45;45.53;94881.06;5045140;28;20225;-58
2022/07/31 10:02:39;;;;;;;21.00;16.57;;;29.80;72.40;;;30.48;45.63;94888.66;5044353;28;20212;-60
2022/07/31 10:05:06;;;;;;;15.57;13.90;;;29.80;71.00;;;30.54;44.81;94879.47;5044100;28;20196;-60
2022/07/31 10:07:35;;;;;;;16.67;15.00;;;29.90;70.10;;;30.73;45.56;94871.66;5045732;28;20286;-60
2022/07/31 10:10:04;;;;;;;16.90;15.20;;;30.10;70.00;;;30.96;44.59;94867.63;5045591;28;20236;-61
2022/07/31 10:12:33;;;;;;;15.97;14.33;;;30.30;69.50;;;31.13;44.68;94869.34;5046306;28;20221;-60